createdAt,value
2023-01-28T00:00:55.248Z,6.30
2023-01-28T00:03:22.154Z,6.13
2023-01-28T00:05:49.013Z,5.87
2023-01-28T00:08:15.803Z,6.20
2023-01-28T00:10:45.334Z,6.30
2023-01-28T00:13:14.757Z,5.07
2023-01-28T00:15:41.627Z,4.73
2023-01-28T00:18:08.442Z,4.33
2023-01-28T00:20:35.873Z,4.70
2023-01-28T00:23:02.773Z,4.30
2023-01-28T00:25:29.546Z,5.30
2023-01-28T00:27:56.339Z,4.67
2023-01-28T00:30:23.523Z,4.87
2023-01-28T00:32:50.180Z,5.60
2023-01-28T00:35:17.175Z,5.20
2023-01-28T00:37:47.187Z,4.90
2023-01-28T00:40:14.441Z,5.30
2023-01-28T00:42:41.176Z,4.53
2023-01-28T00:45:08.611Z,4.43
2023-01-28T00:47:35.676Z,5.10
2023-01-28T00:50:03.037Z,6.27
2023-01-28T00:52:29.997Z,4.07
2023-01-28T00:54:57.353Z,4.30
2023-01-28T00:57:24.776Z,4.30
2023-01-28T00:59:51.432Z,5.10
2023-01-28T01:02:18.398Z,3.87
2023-01-28T01:04:54.839Z,4.27
2023-01-28T01:07:41.782Z,4.13
2023-01-28T01:10:15.338Z,4.50
2023-01-28T01:12:42.336Z,3.70
2023-01-28T01:15:10.467Z,3.50
2023-01-28T01:17:38.350Z,4.63
2023-01-28T01:20:06.817Z,4.63
2023-01-28T01:22:35.212Z,4.77
2023-01-28T01:25:03.797Z,4.87
2023-01-28T01:27:31.392Z,5.07
2023-01-28T01:29:59.201Z,4.33
2023-01-28T01:32:29.224Z,3.90
2023-01-28T01:34:55.916Z,4.43
2023-01-28T01:37:22.705Z,3.77
2023-01-28T01:39:49.436Z,3.80
2023-01-28T01:42:16.365Z,3.80
2023-01-28T01:45:01.728Z,3.70
2023-01-28T01:47:51.612Z,5.07
2023-01-28T01:50:29.339Z,3.50
2023-01-28T01:52:59.602Z,4.87
2023-01-28T01:55:30.100Z,3.63
2023-01-28T01:58:01.801Z,3.60
2023-01-28T02:00:28.454Z,3.60
2023-01-28T02:02:56.692Z,4.30
2023-01-28T02:05:23.433Z,3.27
2023-01-28T02:07:55.057Z,4.23
2023-01-28T02:10:23.112Z,3.23
2023-01-28T02:12:57.934Z,3.60
2023-01-28T02:15:26.256Z,4.30
2023-01-28T02:17:53.382Z,3.77
2023-01-28T02:20:24.217Z,4.77
2023-01-28T02:23:22.059Z,3.73
2023-01-28T02:26:25.999Z,4.43
2023-01-28T02:29:01.631Z,3.90
2023-01-28T02:31:49.254Z,3.67
2023-01-28T02:34:40.518Z,3.43
2023-01-28T02:37:20.139Z,3.00
2023-01-28T02:39:58.058Z,2.70
2023-01-28T02:42:31.943Z,2.60
2023-01-28T02:44:58.600Z,3.03
2023-01-28T02:47:43.738Z,3.23
2023-01-28T02:50:17.480Z,3.60
2023-01-28T02:53:09.917Z,3.17
2023-01-28T02:56:05.181Z,3.37
2023-01-28T02:58:44.950Z,3.60
2023-01-28T03:01:26.921Z,3.60
2023-01-28T03:04:05.037Z,3.37
2023-01-28T03:06:40.940Z,3.50
2023-01-28T03:09:24.333Z,4.17
2023-01-28T03:12:25.534Z,3.67
2023-01-28T03:15:22.253Z,4.00
2023-01-28T03:18:11.263Z,3.57
2023-01-28T03:21:08.283Z,3.27
2023-01-28T03:24:02.096Z,4.00
2023-01-28T03:26:51.240Z,4.07
2023-01-28T03:29:41.031Z,4.13
2023-01-28T03:32:30.707Z,3.10
2023-01-28T03:35:17.159Z,3.00
2023-01-28T03:37:44.029Z,3.27
2023-01-28T03:40:12.302Z,2.90
2023-01-28T03:42:39.038Z,3.10
2023-01-28T03:45:08.013Z,3.00
2023-01-28T03:47:34.781Z,2.93
2023-01-28T03:50:01.444Z,2.90
2023-01-28T03:52:31.972Z,2.70
2023-01-28T03:54:58.822Z,2.90
2023-01-28T03:57:27.658Z,3.07
2023-01-28T03:59:54.848Z,3.53
2023-01-28T04:02:22.751Z,3.20
2023-01-28T04:04:50.175Z,3.13
2023-01-28T04:07:17.316Z,3.57
2023-01-28T04:09:44.525Z,3.03
2023-01-28T04:12:11.899Z,3.57
2023-01-28T04:14:40.166Z,2.63
2023-01-28T04:17:10.366Z,3.30
2023-01-28T04:19:37.517Z,2.87
2023-01-28T04:22:06.825Z,2.87
2023-01-28T04:24:33.743Z,3.03
2023-01-28T04:27:00.392Z,3.67
2023-01-28T04:29:27.196Z,2.97
2023-01-28T04:31:53.888Z,3.83
2023-01-28T04:34:20.504Z,3.33
2023-01-28T04:36:47.154Z,3.87
2023-01-28T04:39:13.946Z,3.23
2023-01-28T04:41:40.773Z,3.53
2023-01-28T04:44:07.630Z,3.40
2023-01-28T04:46:34.349Z,3.23
2023-01-28T04:49:02.071Z,3.57
2023-01-28T04:51:28.860Z,3.67
2023-01-28T04:53:55.577Z,3.63
2023-01-28T04:56:22.342Z,4.43
2023-01-28T04:58:49.005Z,3.80
2023-01-28T05:01:15.703Z,3.93
2023-01-28T05:03:42.431Z,3.63
2023-01-28T05:06:10.277Z,4.00
2023-01-28T05:08:37.098Z,3.73
2023-01-28T05:11:03.824Z,3.40
2023-01-28T05:13:30.675Z,3.30
2023-01-28T05:15:57.278Z,3.60
2023-01-28T05:18:23.978Z,3.77
2023-01-28T05:20:50.623Z,3.97
2023-01-28T05:23:17.431Z,3.57
2023-01-28T05:25:44.114Z,3.20
2023-01-28T05:28:10.774Z,3.53
2023-01-28T05:30:38.716Z,3.77
2023-01-28T05:33:05.575Z,4.07
2023-01-28T05:35:32.366Z,3.67
2023-01-28T05:37:59.034Z,3.67
2023-01-28T05:40:25.753Z,10.13
2023-01-28T05:42:52.357Z,4.60
2023-01-28T05:45:19.077Z,4.70
2023-01-28T05:47:45.973Z,5.23
2023-01-28T05:50:15.116Z,7.07
2023-01-28T05:52:42.537Z,4.47
2023-01-28T05:55:10.109Z,7.90
2023-01-28T05:57:37.251Z,5.80
2023-01-28T06:00:05.792Z,4.47
2023-01-28T06:02:32.790Z,5.27
2023-01-28T06:05:00.201Z,7.07
2023-01-28T06:07:26.923Z,6.77
2023-01-28T06:09:53.601Z,6.00
2023-01-28T06:12:20.220Z,4.53
2023-01-28T06:14:46.826Z,5.40
2023-01-28T06:17:13.545Z,10.23
2023-01-28T06:19:40.198Z,5.53
2023-01-28T06:22:06.981Z,4.73
2023-01-28T06:24:33.667Z,5.90
2023-01-28T06:27:00.369Z,6.93
2023-01-28T06:29:27.169Z,5.30
2023-01-28T06:31:54.199Z,6.03
2023-01-28T06:34:21.026Z,6.20
2023-01-28T06:36:47.805Z,7.03
2023-01-28T06:39:14.497Z,5.50
2023-01-28T06:41:41.336Z,5.90
2023-01-28T06:44:08.086Z,6.27
2023-01-28T06:46:34.930Z,6.10
2023-01-28T06:49:01.925Z,6.43
2023-01-28T06:51:28.530Z,6.67
2023-01-28T06:53:55.273Z,6.13
2023-01-28T06:56:21.956Z,6.97
2023-01-28T06:58:48.933Z,8.37
2023-01-28T07:01:15.597Z,6.90
2023-01-28T07:03:42.277Z,7.27
2023-01-28T07:06:09.020Z,7.20
2023-01-28T07:08:37.703Z,7.23
2023-01-28T07:11:04.740Z,7.90
2023-01-28T07:13:31.532Z,9.23
2023-01-28T07:15:58.333Z,7.70
2023-01-28T07:18:25.053Z,8.07
2023-01-28T07:20:51.794Z,7.33
2023-01-28T07:23:18.513Z,8.47
2023-01-28T07:25:45.136Z,7.87
2023-01-28T07:28:12.837Z,9.23
2023-01-28T07:30:39.525Z,7.83
2023-01-28T07:33:06.311Z,8.53
2023-01-28T07:35:33.261Z,7.73
2023-01-28T07:38:01.342Z,10.27
2023-01-28T07:40:28.827Z,8.17
2023-01-28T07:42:56.691Z,7.37
2023-01-28T07:45:26.850Z,7.87
2023-01-28T07:48:04.061Z,7.07
2023-01-28T07:50:34.086Z,6.90
2023-01-28T07:53:04.131Z,6.50
2023-01-28T07:55:31.570Z,7.70
2023-01-28T07:58:00.729Z,8.00
2023-01-28T08:00:29.986Z,8.37
2023-01-28T08:02:58.201Z,7.73
2023-01-28T08:05:27.357Z,8.13
2023-01-28T08:07:54.186Z,7.80
2023-01-28T08:10:20.903Z,8.13
2023-01-28T08:12:55.126Z,6.57
2023-01-28T08:15:22.755Z,7.77
2023-01-28T08:17:49.666Z,7.50
2023-01-28T08:20:17.279Z,7.33
2023-01-28T08:22:44.114Z,7.63
2023-01-28T08:25:10.929Z,7.40
2023-01-28T08:27:37.723Z,6.43
2023-01-28T08:30:05.113Z,6.47
2023-01-28T08:32:32.258Z,6.10
2023-01-28T08:34:59.679Z,5.97
2023-01-28T08:37:27.363Z,6.17
2023-01-28T08:39:54.059Z,6.20
2023-01-28T08:42:20.807Z,8.03
2023-01-28T08:44:48.226Z,8.93
2023-01-28T08:47:15.274Z,7.40
2023-01-28T08:49:41.971Z,6.73
2023-01-28T08:52:08.726Z,7.10
2023-01-28T08:54:36.502Z,7.13
2023-01-28T08:57:03.998Z,7.10
2023-01-28T08:59:30.715Z,7.97
2023-01-28T09:01:57.518Z,8.50
2023-01-28T09:04:24.201Z,7.43
2023-01-28T09:06:51.142Z,6.50
2023-01-28T09:09:17.903Z,6.40
2023-01-28T09:11:44.607Z,7.90
2023-01-28T09:14:11.285Z,7.67
2023-01-28T09:16:37.922Z,8.97
2023-01-28T09:19:04.566Z,7.77
2023-01-28T09:21:31.214Z,7.03
2023-01-28T09:23:58.462Z,7.87
2023-01-28T09:26:25.338Z,7.00
2023-01-28T09:28:52.012Z,7.73
2023-01-28T09:31:18.733Z,7.20
2023-01-28T09:33:47.253Z,7.30
2023-01-28T09:36:13.917Z,7.40
2023-01-28T09:38:40.566Z,7.17
2023-01-28T09:41:29.070Z,6.80
2023-01-28T09:44:04.683Z,7.33
2023-01-28T09:46:35.038Z,7.57
2023-01-28T09:49:26.343Z,7.53
2023-01-28T09:51:55.456Z,7.07
2023-01-28T09:54:41.417Z,8.13
2023-01-28T09:57:17.699Z,8.47
2023-01-28T09:59:44.412Z,7.70
2023-01-28T10:02:28.377Z,7.93
2023-01-28T10:05:33.650Z,7.07
2023-01-28T10:08:12.438Z,7.17
2023-01-28T10:10:50.419Z,9.17
2023-01-28T10:13:39.877Z,7.30
2023-01-28T10:16:14.211Z,7.87
2023-01-28T10:19:03.041Z,7.47
2023-01-28T10:21:47.193Z,9.30
2023-01-28T10:24:34.846Z,9.43
2023-01-28T10:27:03.903Z,8.50
2023-01-28T10:29:34.989Z,8.23
2023-01-28T10:32:26.887Z,7.70
2023-01-28T10:34:53.797Z,8.23
2023-01-28T10:37:21.536Z,7.33
2023-01-28T10:39:48.484Z,9.20
2023-01-28T10:42:34.362Z,8.30
2023-01-28T10:45:07.301Z,7.80
2023-01-28T10:47:40.478Z,8.00
2023-01-28T10:50:15.356Z,8.13
2023-01-28T10:52:59.020Z,8.10
2023-01-28T10:55:31.924Z,7.80
2023-01-28T10:57:59.213Z,7.80
2023-01-28T11:00:36.832Z,9.90
2023-01-28T11:03:03.979Z,8.70
2023-01-28T11:05:31.653Z,7.23
2023-01-28T11:08:04.379Z,13.00
2023-01-28T11:10:33.682Z,8.70
2023-01-28T11:13:03.438Z,9.33
2023-01-28T11:15:30.534Z,8.40
2023-01-28T11:18:02.130Z,8.03
2023-01-28T11:20:32.782Z,9.43
2023-01-28T11:22:59.525Z,9.03
2023-01-28T11:25:37.218Z,8.73
2023-01-28T11:28:15.043Z,9.13
2023-01-28T11:30:42.142Z,9.33
2023-01-28T11:33:15.026Z,8.37
2023-01-28T11:35:41.698Z,9.57
2023-01-28T11:38:20.319Z,8.90
2023-01-28T11:40:57.950Z,9.03
2023-01-28T11:43:27.169Z,8.07
2023-01-28T11:46:12.962Z,7.83
2023-01-28T11:48:56.981Z,8.70
2023-01-28T11:51:36.209Z,8.30
2023-01-28T11:54:05.898Z,7.83
2023-01-28T11:56:58.147Z,7.77
2023-01-28T11:59:44.856Z,7.90
2023-01-28T12:02:39.680Z,8.90
2023-01-28T12:05:12.422Z,9.23
2023-01-28T12:07:56.310Z,7.87
2023-01-28T12:10:34.324Z,10.67
2023-01-28T12:13:23.457Z,14.57
2023-01-28T12:15:52.969Z,27.00
2023-01-28T12:18:41.548Z,8.83
2023-01-28T12:21:23.910Z,8.77
2023-01-28T12:24:01.198Z,7.40
2023-01-28T12:26:44.168Z,8.10
2023-01-28T12:29:32.945Z,7.53
2023-01-28T12:32:19.813Z,8.10
2023-01-28T12:34:54.250Z,8.10
2023-01-28T12:37:46.518Z,8.07
2023-01-28T12:40:43.620Z,8.53
2023-01-28T12:43:13.699Z,8.10
2023-01-28T12:45:47.090Z,9.57
2023-01-28T12:48:29.821Z,8.07
2023-01-28T12:51:12.173Z,9.50
2023-01-28T12:53:50.748Z,8.40
2023-01-28T12:56:26.049Z,9.30
2023-01-28T12:59:07.035Z,9.53
2023-01-28T13:01:49.892Z,9.67
2023-01-28T13:04:39.973Z,7.93
2023-01-28T13:07:15.481Z,8.90
2023-01-28T13:09:51.614Z,10.03
2023-01-28T13:12:20.291Z,7.97
2023-01-28T13:14:48.657Z,11.57
2023-01-28T13:17:30.466Z,7.67
2023-01-28T13:19:58.579Z,11.07
2023-01-28T13:22:35.205Z,7.70
2023-01-28T13:25:25.234Z,7.80
2023-01-28T13:28:06.591Z,5.87
2023-01-28T13:30:47.078Z,6.70
2023-01-28T13:33:30.255Z,6.27
2023-01-28T13:35:57.293Z,7.53
2023-01-28T13:38:24.712Z,8.00
2023-01-28T13:40:56.806Z,7.17
2023-01-28T13:43:34.499Z,6.00
2023-01-28T13:46:14.466Z,7.70
2023-01-28T13:48:54.595Z,7.03
2023-01-28T13:51:31.529Z,6.50
2023-01-28T13:54:07.487Z,6.27
2023-01-28T13:57:05.040Z,8.80
2023-01-28T13:59:43.704Z,7.90
2023-01-28T14:03:02.772Z,8.77
2023-01-28T14:06:02.881Z,7.60
2023-01-28T14:08:48.122Z,7.03
2023-01-28T14:11:47.616Z,8.30
2023-01-28T14:14:56.197Z,11.77
2023-01-28T14:17:35.905Z,9.60
2023-01-28T14:20:04.931Z,7.67
2023-01-28T14:22:31.684Z,9.17
2023-01-28T14:25:02.055Z,8.10
2023-01-28T14:27:38.262Z,8.23
2023-01-28T14:30:24.345Z,8.40
2023-01-28T14:32:53.871Z,7.43
2023-01-28T14:35:44.980Z,8.23
2023-01-28T14:38:17.145Z,8.70
2023-01-28T14:40:45.030Z,9.63
2023-01-28T14:43:24.657Z,7.50
2023-01-28T14:45:51.255Z,6.30
2023-01-28T14:48:32.512Z,6.30
2023-01-28T14:51:40.498Z,6.13
2023-01-28T14:54:12.181Z,6.20
2023-01-28T14:57:00.101Z,7.33
2023-01-28T14:59:32.032Z,6.47
2023-01-28T15:01:59.675Z,7.77
2023-01-28T15:04:33.026Z,7.23
2023-01-28T15:07:18.194Z,6.90
2023-01-28T15:09:45.230Z,7.77
2023-01-28T15:12:12.856Z,7.20
2023-01-28T15:14:40.693Z,7.37
2023-01-28T15:17:21.776Z,7.13
2023-01-28T15:19:48.752Z,6.83
2023-01-28T15:22:16.016Z,8.20
2023-01-28T15:24:44.274Z,6.90
2023-01-28T15:27:22.916Z,6.60
2023-01-28T15:29:54.018Z,6.87
2023-01-28T15:32:25.351Z,7.07
2023-01-28T15:34:52.107Z,7.50
2023-01-28T15:37:20.171Z,7.17
2023-01-28T15:39:47.322Z,6.73
2023-01-28T15:42:21.961Z,7.00
2023-01-28T15:44:50.237Z,7.77
2023-01-28T15:47:26.940Z,6.17
2023-01-28T15:49:57.136Z,7.20
2023-01-28T15:52:33.941Z,5.93
2023-01-28T15:55:00.919Z,5.83
2023-01-28T15:57:31.130Z,5.80
2023-01-28T16:00:06.982Z,8.23
2023-01-28T16:02:33.821Z,8.10
2023-01-28T16:05:03.289Z,6.73
2023-01-28T16:07:33.033Z,7.13
2023-01-28T16:10:01.986Z,8.73
2023-01-28T16:12:29.224Z,7.30
2023-01-28T16:15:02.964Z,8.57
2023-01-28T16:17:35.669Z,8.60
2023-01-28T16:20:09.565Z,9.10
2023-01-28T16:22:42.011Z,10.50
2023-01-28T16:25:30.597Z,8.60
2023-01-28T16:27:58.984Z,8.67
2023-01-28T16:30:26.753Z,9.23
2023-01-28T16:32:56.897Z,8.33
2023-01-28T16:35:38.272Z,7.83
2023-01-28T16:38:17.097Z,9.00
2023-01-28T16:40:45.053Z,8.07
2023-01-28T16:43:14.707Z,8.90
2023-01-28T16:45:46.063Z,9.57
2023-01-28T16:48:13.624Z,6.93
2023-01-28T16:50:42.798Z,13.73
2023-01-28T16:53:20.809Z,8.77
2023-01-28T16:55:50.009Z,8.20
2023-01-28T16:58:22.585Z,7.40
2023-01-28T17:00:49.512Z,9.93
2023-01-28T17:03:16.177Z,8.33
2023-01-28T17:05:42.853Z,9.40
2023-01-28T17:08:09.740Z,10.40
2023-01-28T17:10:36.562Z,8.90
2023-01-28T17:13:03.981Z,8.00
2023-01-28T17:15:30.687Z,6.20
2023-01-28T17:17:57.376Z,6.07
2023-01-28T17:20:24.045Z,5.27
2023-01-28T17:22:50.910Z,5.63
2023-01-28T17:25:18.082Z,5.30
2023-01-28T17:27:44.888Z,5.33
2023-01-28T17:30:12.077Z,5.70
2023-01-28T17:32:38.713Z,6.77
2023-01-28T17:35:06.256Z,5.67
2023-01-28T17:37:32.941Z,5.63
2023-01-28T17:39:59.625Z,7.13
2023-01-28T17:42:27.463Z,7.77
2023-01-28T17:44:54.897Z,5.30
2023-01-28T17:47:21.564Z,5.83
2023-01-28T17:49:48.223Z,7.10
2023-01-28T17:52:14.918Z,6.60
2023-01-28T17:54:41.632Z,6.10
2023-01-28T17:57:08.310Z,6.17
2023-01-28T17:59:35.136Z,6.50
2023-01-28T18:02:01.799Z,7.10
2023-01-28T18:04:28.592Z,5.60
2023-01-28T18:06:55.227Z,5.67
2023-01-28T18:09:21.995Z,6.60
2023-01-28T18:11:48.688Z,6.93
2023-01-28T18:14:15.457Z,6.60
2023-01-28T18:16:42.175Z,6.60
2023-01-28T18:19:10.283Z,5.80
2023-01-28T18:21:52.990Z,5.60
2023-01-28T18:24:21.361Z,4.33
2023-01-28T18:26:48.184Z,5.97
2023-01-28T18:29:19.185Z,5.23
2023-01-28T18:31:49.884Z,4.93
2023-01-28T18:34:18.192Z,6.10
2023-01-28T18:36:44.981Z,5.03
2023-01-28T18:39:16.088Z,5.37
2023-01-28T18:41:43.130Z,5.87
2023-01-28T18:44:11.262Z,7.90
2023-01-28T18:46:37.935Z,6.40
2023-01-28T18:49:04.849Z,5.97
2023-01-28T18:51:31.864Z,6.67
2023-01-28T18:53:59.930Z,7.23
2023-01-28T18:56:27.983Z,6.77
2023-01-28T18:59:03.333Z,8.93
2023-01-28T19:01:31.869Z,7.83
2023-01-28T19:04:00.346Z,6.80
2023-01-28T19:06:29.108Z,7.30
2023-01-28T19:08:58.692Z,5.93
2023-01-28T19:11:27.146Z,6.20
2023-01-28T19:13:54.451Z,6.33
2023-01-28T19:16:22.342Z,7.67
2023-01-28T19:18:59.681Z,6.43
2023-01-28T19:21:28.860Z,7.10
2023-01-28T19:23:58.220Z,6.43
2023-01-28T19:26:26.456Z,7.33
2023-01-28T19:28:53.751Z,6.93
2023-01-28T19:31:22.080Z,7.80
2023-01-28T19:33:49.349Z,6.10
2023-01-28T19:36:16.357Z,7.00
2023-01-28T19:38:43.042Z,7.03
2023-01-28T19:41:09.785Z,6.23
2023-01-28T19:43:36.506Z,8.07
2023-01-28T19:46:05.858Z,6.43
2023-01-28T19:48:33.132Z,7.97
2023-01-28T19:51:07.380Z,6.43
2023-01-28T19:53:35.253Z,6.27
2023-01-28T19:56:07.940Z,6.13
2023-01-28T19:58:35.972Z,10.20
2023-01-28T20:01:13.131Z,6.37
2023-01-28T20:03:40.197Z,7.73
2023-01-28T20:06:10.443Z,6.97
2023-01-28T20:08:37.180Z,6.53
2023-01-28T20:11:04.946Z,6.50
2023-01-28T20:13:33.152Z,6.60
2023-01-28T20:16:03.587Z,8.67
2023-01-28T20:18:30.376Z,8.77
2023-01-28T20:20:57.425Z,8.00
2023-01-28T20:23:24.361Z,6.83
2023-01-28T20:25:55.568Z,7.17
2023-01-28T20:28:23.237Z,6.53
2023-01-28T20:30:52.375Z,6.70
2023-01-28T20:33:19.696Z,7.23
2023-01-28T20:35:47.315Z,7.53
2023-01-28T20:38:14.602Z,6.57
2023-01-28T20:40:44.616Z,7.13
2023-01-28T20:43:11.416Z,9.53
2023-01-28T20:45:38.234Z,6.67
2023-01-28T20:48:05.120Z,8.27
2023-01-28T20:50:34.550Z,7.50
2023-01-28T20:53:01.223Z,6.23
2023-01-28T20:55:28.646Z,7.87
2023-01-28T20:57:55.528Z,8.23
2023-01-28T21:00:22.874Z,7.13
2023-01-28T21:02:49.876Z,9.03
2023-01-28T21:05:16.672Z,7.60
2023-01-28T21:07:43.441Z,7.03
2023-01-28T21:10:10.973Z,7.70
2023-01-28T21:12:37.726Z,6.47
2023-01-28T21:15:05.183Z,7.03
2023-01-28T21:17:35.449Z,7.43
2023-01-28T21:20:02.152Z,8.30
2023-01-28T21:22:28.775Z,7.90
2023-01-28T21:24:55.730Z,6.90
2023-01-28T21:27:22.446Z,6.73
2023-01-28T21:29:49.122Z,7.13
2023-01-28T21:32:16.449Z,7.00
2023-01-28T21:34:43.396Z,8.30
2023-01-28T21:37:10.104Z,9.23
2023-01-28T21:39:36.774Z,8.57
2023-01-28T21:42:03.619Z,6.00
2023-01-28T21:44:30.366Z,7.80
2023-01-28T21:46:57.187Z,6.80
2023-01-28T21:49:23.818Z,8.47
2023-01-28T21:51:50.415Z,8.27
2023-01-28T21:54:19.345Z,6.80
2023-01-28T21:56:48.383Z,8.10
2023-01-28T21:59:28.040Z,7.10
2023-01-28T22:02:14.706Z,5.83
2023-01-28T22:04:43.548Z,6.87
2023-01-28T22:07:13.203Z,8.47
2023-01-28T22:09:40.725Z,6.43
2023-01-28T22:12:08.119Z,10.67
2023-01-28T22:14:35.799Z,5.77
2023-01-28T22:17:03.471Z,7.10
2023-01-28T22:19:30.222Z,7.00
2023-01-28T22:21:57.056Z,6.23
2023-01-28T22:24:24.543Z,7.33
2023-01-28T22:26:53.220Z,6.10
2023-01-28T22:29:22.242Z,7.40
2023-01-28T22:31:50.373Z,6.27
2023-01-28T22:34:18.064Z,5.67
2023-01-28T22:36:44.991Z,6.70
2023-01-28T22:39:14.583Z,5.70
2023-01-28T22:41:42.305Z,7.53
2023-01-28T22:44:09.596Z,6.33
2023-01-28T22:46:37.043Z,6.17
2023-01-28T22:49:05.273Z,6.90
2023-01-28T22:51:33.887Z,6.43
2023-01-28T22:54:00.640Z,7.33
2023-01-28T22:56:29.236Z,8.90
2023-01-28T22:59:01.075Z,6.83
2023-01-28T23:01:28.641Z,7.43
2023-01-28T23:03:58.477Z,7.33
2023-01-28T23:06:27.293Z,6.23
2023-01-28T23:08:54.527Z,5.90
2023-01-28T23:11:27.833Z,6.23
2023-01-28T23:14:15.997Z,6.37
2023-01-28T23:17:01.385Z,9.13
2023-01-28T23:19:46.981Z,7.27
2023-01-28T23:22:41.759Z,6.57
2023-01-28T23:25:09.095Z,6.67
2023-01-28T23:27:35.993Z,7.00
2023-01-28T23:30:03.838Z,7.17
2023-01-28T23:32:31.040Z,7.70
2023-01-28T23:34:57.706Z,8.40
2023-01-28T23:37:24.394Z,6.87
2023-01-28T23:39:51.355Z,6.63
2023-01-28T23:42:23.629Z,7.23
2023-01-28T23:44:50.326Z,8.40
2023-01-28T23:47:17.207Z,6.73
2023-01-28T23:49:43.971Z,7.83
2023-01-28T23:52:10.725Z,7.73
2023-01-28T23:54:37.538Z,7.63
2023-01-28T23:57:05.083Z,9.00
2023-01-28T23:59:32.122Z,6.93
